Time;durP1;ratioP1;P1;durP2;ratioP2;P2;SDS_P1;SDS_P2;PMS_P1;PMS_P2;Temp;Humidity;BMP_temperature;BMP_pressure;BME280_temperature;BME280_humidity;BME280_pressure;Samples;Min_cycle;Max_cycle;Signal;HPM_P1;HPM_P2
2022/06/20 00:01:07;;;;;;;1.05;0.50;;;;;;;33.19;21.26;97574.66;5080812;28;20121;-78
2022/06/20 00:03:41;;;;;;;1.70;0.57;;;;;;;32.85;22.12;97572.06;5084750;28;20036;-78
2022/06/20 00:06:16;;;;;;;0.57;0.50;;;;;;;32.93;21.82;97571.09;5082324;28;20038;-78
2022/06/20 00:08:43;;;;;;;0.40;0.40;;;;;;;33.05;21.89;97575.59;5079126;28;20110;-78
2022/06/20 00:11:15;;;;;;;0.70;0.50;;;;;;;33.12;21.34;97580.81;5082477;28;20024;-78
2022/06/20 00:13:44;;;;;;;0.50;0.40;;;;;;;33.00;21.15;97582.00;5080401;28;20488;-78
2022/06/20 00:16:15;;;;;;;0.82;0.40;;;;;;;33.00;21.47;97578.38;5079061;28;20036;-78
2022/06/20 00:18:41;;;;;;;1.00;0.68;;;;;;;32.99;22.50;97579.66;5079971;28;20031;-78
2022/06/20 00:21:13;;;;;;;0.65;0.43;;;;;;;32.94;21.76;97580.41;5077400;28;20036;-78
2022/06/20 00:23:39;;;;;;;0.40;0.40;;;;;;;32.64;21.72;97579.94;5071964;28;20046;-79
2022/06/20 00:26:06;;;;;;;0.75;0.47;;;;;;;32.73;22.20;97571.22;5076139;28;20036;-79
2022/06/20 00:28:32;;;;;;;0.40;0.40;;;;;;;32.69;21.69;97565.78;5078625;28;20025;-78
2022/06/20 00:30:59;;;;;;;0.57;0.40;;;;;;;32.62;22.01;97571.13;5077912;28;20439;-78
2022/06/20 00:33:25;;;;;;;0.65;0.40;;;;;;;32.72;22.38;97575.34;5080026;28;20032;-77
2022/06/20 00:35:53;;;;;;;0.75;0.52;;;;;;;32.49;22.51;97574.38;5080301;28;20133;-78
2022/06/20 00:38:21;;;;;;;0.40;0.30;;;;;;;32.60;21.98;97574.47;5070991;28;20079;-77
2022/06/20 00:41:03;;;;;;;3.35;0.40;;;;;;;32.58;21.48;97574.19;5064977;28;20036;-78
2022/06/20 00:43:39;;;;;;;0.98;0.38;;;;;;;32.63;21.59;97566.97;5080575;28;20028;-78
2022/06/20 00:46:11;;;;;;;0.40;0.30;;;;;;;32.66;21.48;97569.63;5076628;28;20024;-77
2022/06/20 00:48:59;;;;;;;1.05;0.40;;;;;;;32.64;21.84;97569.34;5086588;28;20024;-77
2022/06/20 00:51:35;;;;;;;0.95;0.40;;;;;;;32.84;22.26;97570.53;5071691;28;20093;-78
2022/06/20 00:54:13;;;;;;;1.10;0.28;;;;;;;32.90;21.22;97574.97;5089556;28;20020;-78
2022/06/20 00:56:53;;;;;;;1.05;0.30;;;;;;;33.00;21.06;97587.69;5077015;28;20060;-78
2022/06/20 00:59:41;;;;;;;0.45;0.40;;;;;;;33.24;20.84;97584.50;5078423;28;20039;-77
2022/06/20 01:02:07;;;;;;;1.17;1.00;;;;;;;33.43;21.15;97588.50;5075465;28;20032;-78
2022/06/20 01:04:43;;;;;;;1.75;0.38;;;;;;;33.51;20.73;97597.34;5075876;28;20028;-78
2022/06/20 01:07:17;;;;;;;0.63;0.40;;;;;;;33.36;20.90;97606.84;5075822;28;20392;-79
2022/06/20 01:09:48;;;;;;;3.67;0.40;;;;;;;33.32;21.25;97603.47;5077405;28;20483;-79
2022/06/20 01:12:17;;;;;;;;;;;;;;;33.35;21.27;97596.72;5082942;28;20036;-79
2022/06/20 01:14:43;;;;;;;3.45;0.47;;;;;;;33.55;20.63;97595.03;5077460;28;19920;-79
2022/06/20 01:17:28;;;;;;;0.50;0.30;;;;;;;33.34;20.27;97603.72;5080493;28;20097;-79
2022/06/20 01:20:27;;;;;;;3.05;0.50;;;;;;;33.30;20.63;97597.47;5072176;28;20032;-79
2022/06/20 01:23:42;;;;;;;0.60;0.60;;;;;;;33.48;20.35;97589.81;5075211;28;20040;-78
2022/06/20 01:26:11;;;;;;;0.30;0.30;;;;;;;33.54;20.40;97594.25;5079445;28;20510;-79
2022/06/20 01:28:42;;;;;;;0.45;0.40;;;;;;;33.38;20.47;97590.03;5081308;28;20043;-78
2022/06/20 01:31:10;;;;;;;0.98;0.32;;;;;;;33.29;20.69;97589.44;5073847;28;20051;-78
2022/06/20 01:33:38;;;;;;;0.30;0.30;;;;;;;33.19;21.02;97590.94;5073938;28;20029;-78
2022/06/20 01:38:50;;;;;;;1.70;0.63;;;;;;;32.93;21.29;97588.16;5079652;28;20083;-78
2022/06/20 01:44:04;;;;;;;1.08;0.50;;;;;;;33.09;20.95;97575.38;5081000;28;20097;-79
2022/06/20 01:46:32;;;;;;;4.45;0.52;;;;;;;33.07;21.45;97587.25;5080008;28;20089;-78
2022/06/20 01:49:03;;;;;;;0.80;0.50;;;;;;;32.81;21.07;97589.38;5077053;28;20565;-78
2022/06/20 01:51:43;;;;;;;2.63;0.98;;;;;;;32.81;21.26;97594.28;5075444;28;20027;-78
2022/06/20 01:54:12;;;;;;;0.80;0.47;;;;;;;33.12;21.17;97592.19;5075746;28;20137;-77
2022/06/20 01:56:40;;;;;;;2.13;0.40;;;;;;;33.33;21.06;97587.13;5076921;28;20032;-78
2022/06/20 01:59:13;;;;;;;0.77;0.47;;;;;;;33.50;20.83;97590.06;5076609;28;20040;-77
2022/06/20 02:01:40;;;;;;;0.60;0.47;;;;;;;33.44;21.31;97579.44;5075739;28;20021;-78
2022/06/20 02:04:12;;;;;;;2.08;0.50;;;;;;;33.14;21.44;97589.63;5075696;28;20492;-77
2022/06/20 02:06:38;;;;;;;1.00;0.40;;;;;;;32.04;22.67;97595.09;5076249;28;20043;-77
2022/06/20 02:09:06;;;;;;;1.65;0.55;;;;;;;32.14;23.14;97605.00;5077601;28;20032;-77
2022/06/20 02:11:41;;;;;;;1.45;0.40;;;;;;;32.50;21.99;97603.59;5073693;28;20032;-77
2022/06/20 02:14:25;;;;;;;0.50;0.30;;;;;;;32.86;21.18;97597.16;5074757;28;20117;-78
2022/06/20 02:17:01;;;;;;;2.38;0.85;;;;;;;33.10;21.06;97577.69;5068388;28;20037;-78
2022/06/20 02:19:32;;;;;;;0.63;0.40;;;;;;;32.85;21.92;97570.00;5073770;28;20064;-78
2022/06/20 02:22:02;;;;;;;0.57;0.50;;;;;;;32.19;21.85;97569.41;5068110;28;20032;-78
2022/06/20 02:24:35;;;;;;;1.08;0.40;;;;;;;32.42;22.06;97562.66;5065706;28;20039;-78
2022/06/20 02:27:07;;;;;;;0.93;0.55;;;;;;;32.74;21.63;97569.94;5068746;28;20067;-78
2022/06/20 02:29:33;;;;;;;0.55;0.30;;;;;;;32.64;22.06;97557.19;5068244;28;20040;-79
2022/06/20 02:32:27;;;;;;;0.38;0.32;;;;;;;32.58;21.63;97562.81;5066923;28;20518;-78
2022/06/20 02:34:53;;;;;;;0.40;0.40;;;;;;;32.74;21.82;97567.09;5068295;28;20487;-78
2022/06/20 02:37:24;;;;;;;2.05;0.40;;;;;;;32.36;22.41;97570.34;5045893;28;20393;-78
2022/06/20 02:39:53;;;;;;;;;;;;;;;32.39;22.56;97575.03;5071089;28;20037;-78
2022/06/20 02:42:36;;;;;;;0.65;0.40;;;;;;;32.47;22.36;97584.66;5078650;28;19958;-78
2022/06/20 02:45:10;;;;;;;0.90;0.50;;;;;;;32.68;21.58;97577.63;5079995;28;20040;-78
2022/06/20 02:47:40;;;;;;;0.40;0.40;;;;;;;32.92;21.65;97560.22;5083675;28;20031;-77
2022/06/20 02:50:06;;;;;;;0.30;0.30;;;;;;;32.81;21.75;97555.25;5077458;28;20418;-78
2022/06/20 02:52:44;;;;;;;1.55;0.45;;;;;;;32.84;21.11;97559.16;5077359;28;20024;-77
2022/06/20 02:55:13;;;;;;;1.08;0.50;;;;;;;30.56;24.36;97569.78;5086107;28;20032;-78
2022/06/20 02:57:44;;;;;;;3.30;0.60;;;;;;;30.36;24.94;97567.69;5080156;28;20496;-77
2022/06/20 03:00:16;;;;;;;3.95;0.60;;;;;;;31.43;23.69;97560.28;5078679;28;20500;-78
2022/06/20 03:02:47;;;;;;;0.73;0.60;;;;;;;32.19;22.79;97546.69;5080695;28;20028;-78
2022/06/20 03:05:15;;;;;;;0.57;0.50;;;;;;;32.73;22.26;97549.25;5057547;28;20069;-77
2022/06/20 03:07:43;;;;;;;0.50;0.50;;;;;;;32.37;22.37;97558.47;5082694;28;20114;-77
2022/06/20 03:10:25;;;;;;;0.50;0.50;;;;;;;32.48;22.08;97557.81;5080965;28;20570;-77
2022/06/20 03:12:54;;;;;;;0.63;0.50;;;;;;;32.98;22.00;97550.44;5080255;28;20036;-77
2022/06/20 03:15:21;;;;;;;0.98;0.75;;;;;;;32.60;22.07;97559.50;5080273;28;20051;-77
2022/06/20 03:17:49;;;;;;;0.90;0.40;;;;;;;31.68;23.43;97572.97;5076567;28;20053;-77
2022/06/20 03:20:20;;;;;;;0.50;0.47;;;;;;;31.96;23.67;97585.41;5074546;28;20036;-77
2022/06/20 03:23:05;;;;;;;0.57;0.57;;;;;;;32.49;22.80;97582.09;5078836;28;20062;-77
2022/06/20 03:25:32;;;;;;;0.32;0.32;;;;;;;33.05;22.65;97578.44;5081550;28;20035;-77
2022/06/20 03:27:58;;;;;;;0.80;0.60;;;;;;;33.52;21.85;97571.19;5085299;28;20051;-77
2022/06/20 03:30:30;;;;;;;1.60;0.65;;;;;;;33.53;21.53;97569.94;5081792;28;20040;-78
2022/06/20 03:32:58;;;;;;;1.20;0.82;;;;;;;32.75;22.63;97574.31;5083309;28;20267;-77
2022/06/20 03:35:30;;;;;;;1.33;0.60;;;;;;;32.60;23.16;97576.53;5093277;28;20404;-77
2022/06/20 03:37:57;;;;;;;0.68;0.50;;;;;;;33.05;23.63;97586.22;5088028;28;20028;-77
2022/06/20 03:40:23;;;;;;;3.80;1.00;;;;;;;33.76;22.78;97585.03;5081026;28;20493;-77
2022/06/20 03:42:50;;;;;;;0.50;0.50;;;;;;;34.52;22.32;97583.69;5082786;28;20024;-78
2022/06/20 03:45:18;;;;;;;1.05;0.63;;;;;;;35.14;21.71;97575.91;5089978;28;20116;-78
2022/06/20 03:47:59;;;;;;;2.83;0.85;;;;;;;34.39;21.83;97577.69;5086981;28;20123;-78
2022/06/20 03:50:31;;;;;;;0.93;0.47;;;;;;;34.70;22.59;97574.59;5089377;28;20032;-79
2022/06/20 03:53:10;;;;;;;1.65;0.60;;;;;;;35.38;21.78;97568.28;5079561;28;20047;-79
2022/06/20 03:56:11;;;;;;;0.82;0.77;;;;;;;35.73;21.26;97564.03;5079963;28;20024;-79
2022/06/20 03:59:01;;;;;;;0.80;0.70;;;;;;;32.81;24.27;97577.22;5077665;28;20037;-78
2022/06/20 04:01:34;;;;;;;2.17;0.60;;;;;;;33.20;24.02;97576.22;5081257;28;20025;-78
2022/06/20 04:04:03;;;;;;;1.38;0.70;;;;;;;34.69;23.34;97570.22;5092364;28;20127;-79
2022/06/20 04:06:45;;;;;;;2.15;0.57;;;;;;;35.88;21.94;97559.53;5089121;28;20475;-79
2022/06/20 04:12:21;;;;;;;1.67;0.52;;;;;;;35.48;21.98;97568.78;5081783;28;20519;-78
2022/06/20 04:14:57;;;;;;;2.85;1.02;;;;;;;35.89;22.00;97574.63;5075728;28;20551;-78
2022/06/20 04:21:15;;;;;;;1.13;0.60;;;;;;;36.03;21.78;97577.16;5075274;28;20047;-79
2022/06/20 04:24:10;;;;;;;4.03;0.60;;;;;;;35.75;21.42;97581.44;5062416;28;20040;-80
2022/06/20 04:26:43;;;;;;;1.10;0.77;;;;;;;36.84;21.03;97572.69;5070855;28;20067;-81
2022/06/20 04:29:34;;;;;;;3.22;0.52;;;;;;;37.61;20.35;97568.25;5076880;28;20471;-79
2022/06/20 04:32:07;;;;;;;1.33;0.40;;;;;;;38.20;19.52;97583.66;5077728;28;20036;-81
2022/06/20 04:34:44;;;;;;;1.58;0.55;;;;;;;38.46;19.52;97581.69;5081246;28;20395;-80
2022/06/20 04:37:19;;;;;;;1.50;0.50;;;;;;;37.48;21.30;97585.34;5080568;28;20144;-80
2022/06/20 04:40:01;;;;;;;0.30;0.30;;;;;;;37.60;21.21;97586.75;5076336;28;20290;-79
2022/06/20 04:42:46;;;;;;;1.10;0.20;;;;;;;38.09;20.64;97567.38;5084358;28;20105;-80
2022/06/20 04:45:39;;;;;;;0.70;0.50;;;;;;;38.59;20.59;97576.03;5079877;28;20099;-79
2022/06/20 04:48:13;;;;;;;1.63;0.30;;;;;;;38.95;19.91;97576.50;5082007;28;20035;-79
2022/06/20 04:50:44;;;;;;;0.47;0.40;;;;;;;39.32;19.62;97575.56;5101574;27;20050;-79
2022/06/20 04:53:22;;;;;;;1.45;0.65;;;;;;;38.46;20.14;97596.03;5083300;28;20484;-80
2022/06/20 04:55:52;;;;;;;0.80;0.50;;;;;;;36.33;23.07;97608.69;5106961;27;20118;-80
2022/06/20 04:58:45;;;;;;;1.38;0.40;;;;;;;36.97;23.42;97609.28;5086524;28;20032;-80
2022/06/20 05:01:11;;;;;;;0.68;0.38;;;;;;;38.02;21.50;97588.84;5076561;28;20044;-80
2022/06/20 05:03:45;;;;;;;0.40;0.40;;;;;;;38.81;21.44;97595.03;5082617;28;20087;-80
2022/06/20 05:06:27;;;;;;;1.15;0.50;;;;;;;39.40;21.09;97595.81;5091547;28;20035;-81
2022/06/20 05:09:21;;;;;;;1.13;0.38;;;;;;;39.91;20.29;97600.03;5069351;28;20073;-80
2022/06/20 05:12:08;;;;;;;1.08;0.40;;;;;;;40.37;19.34;97618.63;5066152;28;20045;-80
2022/06/20 05:14:42;;;;;;;0.95;0.40;;;;;;;38.78;21.63;97615.41;5097657;27;20027;-80
2022/06/20 05:17:19;;;;;;;0.30;0.30;;;;;;;39.05;21.20;97609.19;5081095;28;20392;-80
2022/06/20 05:19:48;;;;;;;1.17;0.40;;;;;;;39.67;20.87;97609.66;5081710;28;20119;-81
2022/06/20 05:22:30;;;;;;;0.30;0.30;;;;;;;40.18;19.92;97610.16;5087279;28;20013;-80
2022/06/20 05:25:00;;;;;;;1.65;0.40;;;;;;;40.68;19.54;97614.78;5084467;28;20041;-81
2022/06/20 05:27:33;;;;;;;1.85;0.32;;;;;;;40.88;19.56;97625.56;5085585;28;20042;-81
2022/06/20 05:30:00;;;;;;;5.22;0.47;;;;;;;40.99;18.63;97621.63;5077386;28;20033;-81
2022/06/20 05:33:05;;;;;;;0.30;0.20;;;;;;;40.77;20.08;97622.94;5080132;28;20036;-78
2022/06/20 05:35:44;;;;;;;0.52;0.43;;;;;;;40.58;20.27;97613.72;5077460;28;20468;-80
2022/06/20 05:38:27;;;;;;;0.20;0.20;;;;;;;40.82;17.11;97603.97;5097854;28;20035;-80
2022/06/20 05:40:58;;;;;;;0.30;0.30;;;;;;;41.05;17.64;97614.41;5087142;28;20096;-80
2022/06/20 05:43:27;;;;;;;1.90;0.45;;;;;;;41.18;16.43;97610.66;5109199;28;20023;-80
2022/06/20 05:45:59;;;;;;;0.28;0.25;;;;;;;41.35;16.25;97619.66;5082544;28;20032;-80
2022/06/20 05:48:32;;;;;;;0.30;0.30;;;;;;;41.24;18.20;97614.19;5074721;28;20032;-80
2022/06/20 05:51:01;;;;;;;0.70;0.30;;;;;;;41.43;16.50;97620.47;5109756;28;20082;-80
2022/06/20 05:53:42;;;;;;;1.77;1.08;;;;;;;41.36;15.52;97612.53;5079985;28;20056;-80
2022/06/20 05:56:27;;;;;;;0.65;0.40;;;;;;;41.03;16.02;97627.81;5087981;28;20044;-80
2022/06/20 05:58:55;;;;;;;1.58;0.30;;;;;;;41.18;16.20;97614.31;5111515;28;20578;-80
2022/06/20 06:01:30;;;;;;;1.30;0.30;;;;;;;41.22;16.30;97626.25;5101953;28;20058;-80
2022/06/20 06:04:05;;;;;;;0.35;0.20;;;;;;;41.36;16.36;97623.31;5098569;28;20451;-80
2022/06/20 06:06:39;;;;;;;0.47;0.25;;;;;;;41.59;16.60;97612.72;5073097;28;20535;-80
2022/06/20 06:09:20;;;;;;;1.20;0.30;;;;;;;41.95;16.01;97604.88;5085590;28;20032;-80
2022/06/20 06:12:01;;;;;;;0.20;0.20;;;;;;;41.57;15.90;97607.50;5100131;28;20518;-80
2022/06/20 06:14:33;;;;;;;2.30;0.45;;;;;;;41.30;16.11;97606.94;5078513;28;20040;-80
2022/06/20 06:17:20;;;;;;;0.35;0.20;;;;;;;41.12;16.31;97613.69;5083830;28;20063;-80
2022/06/20 06:19:57;;;;;;;0.63;0.40;;;;;;;40.29;16.18;97609.13;5084319;28;20036;-80
2022/06/20 06:22:34;;;;;;;0.43;0.40;;;;;;;40.20;16.72;97607.50;5084249;28;20029;-80
2022/06/20 06:25:23;;;;;;;0.43;0.43;;;;;;;40.58;16.00;97602.97;5108492;28;20028;-80
2022/06/20 06:27:53;;;;;;;1.38;0.75;;;;;;;40.43;16.98;97602.00;5106238;28;20085;-80
2022/06/20 06:30:33;;;;;;;0.43;0.30;;;;;;;40.33;16.87;97598.81;5097266;28;20032;-80
2022/06/20 06:33:08;;;;;;;3.00;0.40;;;;;;;39.75;17.04;97599.03;5095383;28;20541;-80
2022/06/20 06:35:41;;;;;;;0.40;0.40;;;;;;;39.78;17.63;97589.28;5101624;28;20111;-80
2022/06/20 06:38:15;;;;;;;1.77;0.60;;;;;;;39.51;17.77;97582.00;5105360;28;20043;-80
2022/06/20 06:40:47;;;;;;;3.80;0.88;;;;;;;40.05;16.98;97587.19;5103496;28;20032;-80
2022/06/20 06:43:28;;;;;;;1.52;0.60;;;;;;;40.69;15.82;97594.06;5091615;28;20036;-80
2022/06/20 06:45:57;;;;;;;1.13;0.50;;;;;;;40.97;15.16;97586.84;5089279;28;20101;-80
2022/06/20 06:48:49;;;;;;;1.00;0.40;;;;;;;41.09;15.27;97586.00;5083194;28;20043;-80
2022/06/20 06:51:23;;;;;;;1.58;0.50;;;;;;;41.22;15.53;97583.03;5090951;28;20028;-80
2022/06/20 06:53:59;;;;;;;1.02;0.55;;;;;;;40.66;16.43;97582.88;5070853;28;20460;-80
2022/06/20 06:56:40;;;;;;;0.40;0.40;;;;;;;41.02;16.72;97572.31;5085916;28;20598;-81
2022/06/20 06:59:22;;;;;;;;;;;;;;;39.19;16.80;97576.31;5092852;28;20028;-80
2022/06/20 07:01:53;;;;;;;0.70;0.70;;;;;;;39.05;18.16;97568.22;5103297;28;19912;-80
2022/06/20 07:04:33;;;;;;;0.60;0.50;;;;;;;39.20;18.50;97559.88;5094100;28;20435;-81
2022/06/20 07:07:16;;;;;;;2.15;0.40;;;;;;;39.76;18.01;97562.44;5078643;28;20082;-81
2022/06/20 07:09:53;;;;;;;1.08;0.60;;;;;;;39.15;18.53;97555.00;5089241;28;20047;-80
2022/06/20 07:12:37;;;;;;;2.78;0.60;;;;;;;38.98;17.62;97561.03;5107977;28;20040;-81
2022/06/20 07:15:06;;;;;;;0.57;0.50;;;;;;;38.99;19.18;97568.31;5091917;28;20039;-81
2022/06/20 07:17:42;;;;;;;0.57;0.57;;;;;;;39.90;17.15;97555.31;5112416;28;20097;-81
2022/06/20 07:20:09;;;;;;;1.08;0.40;;;;;;;40.32;16.94;97556.22;5100575;28;20432;-81
2022/06/20 07:22:39;;;;;;;0.90;0.60;;;;;;;40.41;17.04;97547.88;5070506;28;20496;-81
2022/06/20 07:25:06;;;;;;;1.17;0.50;;;;;;;40.01;17.31;97549.34;5113384;28;20062;-81
2022/06/20 07:27:48;;;;;;;0.65;0.47;;;;;;;39.90;18.28;97549.56;5119025;27;20043;-81
2022/06/20 07:30:18;;;;;;;1.30;0.40;;;;;;;39.63;18.07;97554.59;5105193;28;20034;-81
2022/06/20 07:32:54;;;;;;;1.02;0.47;;;;;;;40.16;17.81;97543.00;5079495;28;20480;-81
2022/06/20 07:35:27;;;;;;;1.13;0.57;;;;;;;40.68;15.91;97537.06;5092040;28;20028;-81
2022/06/20 07:38:00;;;;;;;3.90;0.40;;;;;;;41.23;16.43;97543.47;5075830;28;20037;-81
2022/06/20 07:40:52;;;;;;;1.15;0.80;;;;;;;41.71;15.71;97530.34;5098096;28;20119;-81
2022/06/20 07:43:24;;;;;;;1.05;0.68;;;;;;;40.67;16.50;97552.78;5108915;28;20520;-81
2022/06/20 07:45:53;;;;;;;3.40;0.50;;;;;;;39.50;17.61;97548.81;5093955;28;20110;-81
2022/06/20 07:48:41;;;;;;;0.80;0.40;;;;;;;39.39;18.09;97537.56;5091936;28;20036;-81
2022/06/20 07:51:32;;;;;;;0.85;0.57;;;;;;;39.73;18.39;97538.44;5077027;28;20102;-80
2022/06/20 07:54:13;;;;;;;;;;;;;;;40.88;16.38;97529.75;5075754;28;20036;-81
2022/06/20 07:56:46;;;;;;;1.23;0.50;;;;;;;41.35;16.94;97518.78;5079146;28;20434;-81
2022/06/20 07:59:23;;;;;;;1.27;0.40;;;;;;;41.89;14.99;97506.19;5075168;28;20058;-81
2022/06/20 08:01:58;;;;;;;0.95;0.57;;;;;;;42.31;15.10;97521.94;5093879;28;20020;-81
2022/06/20 08:04:32;;;;;;;0.60;0.60;;;;;;;41.69;16.20;97515.72;5107673;28;20395;-81
2022/06/20 08:07:26;;;;;;;0.47;0.47;;;;;;;39.55;16.79;97530.69;5074879;28;20476;-81
2022/06/20 08:10:01;;;;;;;1.60;0.60;;;;;;;39.49;17.58;97532.91;5084917;28;22406;-80
2022/06/20 08:12:33;;;;;;;1.10;0.55;;;;;;;38.62;18.73;97511.81;5092800;28;20082;-81
2022/06/20 08:15:11;;;;;;;1.80;0.68;;;;;;;38.61;18.61;97507.38;5089588;28;20023;-81
2022/06/20 08:17:38;;;;;;;2.00;0.55;;;;;;;39.65;17.66;97505.19;5089377;28;20028;-81
2022/06/20 08:20:06;;;;;;;0.43;0.40;;;;;;;40.40;17.14;97508.16;5091229;28;20032;-81
2022/06/20 08:22:43;;;;;;;0.60;0.60;;;;;;;41.32;15.54;97491.09;5106194;28;20482;-81
2022/06/20 08:25:27;;;;;;;0.85;0.73;;;;;;;39.84;16.97;97495.06;5086492;28;20035;-81
2022/06/20 08:28:03;;;;;;;2.13;0.40;;;;;;;39.99;17.43;97486.63;5087285;28;20031;-81
2022/06/20 08:30:47;;;;;;;0.68;0.52;;;;;;;39.94;17.07;97473.13;5089038;28;20042;-81
2022/06/20 08:33:21;;;;;;;1.02;0.50;;;;;;;40.77;17.22;97467.44;5074514;28;20480;-81
2022/06/20 08:36:22;;;;;;;1.58;0.80;;;;;;;39.10;18.53;97458.19;5084731;28;20020;-81
2022/06/20 08:39:09;;;;;;;1.60;0.50;;;;;;;38.32;18.21;97439.56;5103867;28;20042;-81
2022/06/20 08:41:50;;;;;;;0.73;0.63;;;;;;;38.96;19.41;97445.16;5108044;28;20024;-81
2022/06/20 08:44:50;;;;;;;0.50;0.50;;;;;;;40.26;18.90;97443.38;5111024;28;20031;-81
2022/06/20 08:47:37;;;;;;;0.60;0.60;;;;;;;40.90;17.43;97432.03;5084249;28;20033;-81
2022/06/20 08:50:18;;;;;;;1.42;0.60;;;;;;;41.33;17.11;97427.09;5092513;28;20059;-81
2022/06/20 08:53:00;;;;;;;4.72;0.60;;;;;;;39.53;17.33;97429.91;5084571;28;20041;-80
2022/06/20 08:55:46;;;;;;;1.00;0.70;;;;;;;39.64;17.36;97426.00;5085973;28;20032;-81
2022/06/20 08:58:36;;;;;;;0.63;0.60;;;;;;;38.62;18.94;97407.72;5109386;28;20100;-81
2022/06/20 09:01:38;;;;;;;1.63;0.90;;;;;;;37.96;19.49;97398.94;5102269;28;20031;-81
2022/06/20 09:04:35;;;;;;;2.05;0.55;;;;;;;39.75;20.17;97394.13;5091752;28;20270;-81
2022/06/20 09:07:39;;;;;;;3.65;0.70;;;;;;;39.82;19.36;97388.47;5107206;28;20032;-81
2022/06/20 09:10:41;;;;;;;0.60;0.60;;;;;;;40.25;18.60;97390.03;5099573;28;20043;-81
2022/06/20 09:13:22;;;;;;;2.85;0.65;;;;;;;41.23;16.28;97379.22;5100290;28;20063;-81
2022/06/20 09:16:27;;;;;;;0.50;0.45;;;;;;;41.01;16.30;97388.53;5084182;28;20103;-81
2022/06/20 09:18:56;;;;;;;0.70;0.70;;;;;;;40.81;17.60;97381.47;5102706;28;20032;-81
2022/06/20 09:21:49;;;;;;;4.32;0.82;;;;;;;39.92;17.86;97386.66;5098812;28;20039;-81
2022/06/20 09:24:18;;;;;;;1.40;0.60;;;;;;;41.08;18.74;97376.25;5102856;28;20028;-81
2022/06/20 09:26:54;;;;;;;3.95;0.70;;;;;;;41.46;17.57;97376.44;5098165;28;20043;-81
2022/06/20 09:29:54;;;;;;;1.48;0.70;;;;;;;41.27;17.21;97363.13;5082722;28;20544;-81
2022/06/20 09:32:59;;;;;;;0.70;0.70;;;;;;;40.54;17.61;97365.75;5102859;28;20032;-81
2022/06/20 09:35:52;;;;;;;1.40;0.68;;;;;;;40.11;17.95;97363.47;5110392;28;20484;-81
2022/06/20 09:38:36;;;;;;;1.08;0.68;;;;;;;40.50;17.35;97348.81;5083684;28;20135;-81
2022/06/20 09:41:16;;;;;;;1.40;0.70;;;;;;;39.34;19.01;97355.34;5107725;28;20058;-81
2022/06/20 09:43:55;;;;;;;4.00;0.80;;;;;;;39.46;19.62;97340.72;5112447;28;20097;-81
2022/06/20 09:46:30;;;;;;;0.95;0.60;;;;;;;38.97;20.16;97334.75;5088856;28;20086;-81
2022/06/20 09:49:10;;;;;;;0.88;0.77;;;;;;;38.94;18.99;97324.38;5083106;28;20492;-81
2022/06/20 09:52:13;;;;;;;0.90;0.80;;;;;;;38.87;18.22;97330.78;5113717;28;20051;-81
2022/06/20 09:54:58;;;;;;;1.80;0.80;;;;;;;39.26;18.00;97322.88;5092395;28;20569;-81
2022/06/20 09:57:48;;;;;;;2.83;0.80;;;;;;;39.40;19.65;97317.09;5113411;28;20052;-81
2022/06/20 10:00:33;;;;;;;1.05;0.70;;;;;;;40.69;17.40;97302.50;5092814;28;20475;-81
2022/06/20 10:03:38;;;;;;;1.52;0.60;;;;;;;40.58;17.06;97299.94;5091806;28;20054;-81
2022/06/20 10:06:31;;;;;;;1.33;0.70;;;;;;;40.73;17.60;97291.38;5101113;28;20460;-81
2022/06/20 10:09:14;;;;;;;2.58;0.73;;;;;;;41.90;18.45;97283.50;5110728;28;20036;-82
2022/06/20 10:12:03;;;;;;;1.65;0.68;;;;;;;42.33;16.86;97282.53;5074642;28;20391;-81
2022/06/20 10:14:53;;;;;;;4.88;0.80;;;;;;;42.65;16.30;97279.03;5103109;28;20046;-81
2022/06/20 10:17:39;;;;;;;0.80;0.68;;;;;;;41.26;15.98;97269.38;5109438;28;20031;-81
2022/06/20 10:20:24;;;;;;;1.08;0.60;;;;;;;41.41;17.64;97265.75;5101360;28;20036;-81
2022/06/20 10:23:16;;;;;;;1.38;0.70;;;;;;;40.54;16.67;97265.75;5101665;28;20451;-81
2022/06/20 10:26:10;;;;;;;2.50;0.90;;;;;;;40.14;17.87;97272.41;5096344;28;20559;-81
2022/06/20 10:28:49;;;;;;;2.78;0.82;;;;;;;40.19;18.75;97280.84;5089333;28;20400;-81
2022/06/20 10:31:41;;;;;;;1.33;0.80;;;;;;;39.63;18.80;97272.16;5094331;28;20136;-81
2022/06/20 10:34:21;;;;;;;0.80;0.80;;;;;;;40.33;20.30;97272.91;5090500;28;20028;-81
2022/06/20 10:36:52;;;;;;;;;;;;;;;40.50;19.29;97282.63;5094320;28;20028;-81
2022/06/20 10:39:32;;;;;;;2.58;0.95;;;;;;;40.55;17.83;97278.81;5094135;28;20436;-81
2022/06/20 10:42:13;;;;;;;0.65;0.60;;;;;;;41.24;18.44;97279.91;5102405;28;20585;-81
2022/06/20 10:44:51;;;;;;;2.90;0.70;;;;;;;42.36;16.51;97281.38;5099583;28;20496;-81
2022/06/20 10:47:31;;;;;;;1.45;0.90;;;;;;;40.79;18.42;97280.47;5103825;28;20080;-81
2022/06/20 10:50:23;;;;;;;1.13;0.77;;;;;;;41.34;19.56;97278.03;5110574;28;20035;-81
2022/06/20 10:52:55;;;;;;;1.80;1.00;;;;;;;40.80;17.28;97284.13;5107201;28;20032;-81
2022/06/20 10:55:34;;;;;;;1.83;0.60;;;;;;;40.87;17.74;97284.19;5114523;28;20040;-81
2022/06/20 10:58:19;;;;;;;0.57;0.57;;;;;;;42.02;17.24;97283.88;5116874;28;20124;-81
2022/06/20 11:00:58;;;;;;;0.90;0.90;;;;;;;41.66;16.33;97286.16;5103242;28;20026;-81
2022/06/20 11:03:47;;;;;;;2.25;0.60;;;;;;;40.75;17.41;97282.97;5083677;28;20040;-81
2022/06/20 11:06:39;;;;;;;1.75;0.80;;;;;;;40.74;17.34;97281.41;5097483;28;20045;-81
2022/06/20 11:09:26;;;;;;;1.48;0.80;;;;;;;39.97;19.13;97281.44;5097132;28;20044;-81
2022/06/20 11:12:13;;;;;;;2.28;0.95;;;;;;;40.30;17.72;97285.53;5109304;28;20039;-81
2022/06/20 11:14:51;;;;;;;2.75;1.20;;;;;;;40.35;17.65;97293.25;5115239;28;20110;-81
2022/06/20 11:17:32;;;;;;;3.75;0.73;;;;;;;41.13;17.57;97297.53;5114389;28;20035;-81
2022/06/20 11:20:19;;;;;;;2.63;0.95;;;;;;;41.77;18.23;97286.59;5090984;28;20397;-81
2022/06/20 11:22:51;;;;;;;1.15;0.60;;;;;;;42.24;16.94;97268.72;5103597;28;20491;-81
2022/06/20 11:25:48;;;;;;;1.20;0.60;;;;;;;42.23;16.39;97278.69;5093472;28;20037;-81
2022/06/20 11:28:25;;;;;;;2.13;1.10;;;;;;;42.18;17.32;97285.44;5075620;28;20512;-82
2022/06/20 11:31:13;;;;;;;2.20;0.60;;;;;;;43.14;16.84;97287.13;5073966;28;20588;-81
2022/06/20 11:34:06;;;;;;;2.65;0.93;;;;;;;43.00;15.92;97282.97;5109007;28;20084;-81
2022/06/20 11:36:52;;;;;;;0.95;0.75;;;;;;;43.50;15.99;97278.88;5097887;28;20036;-81
2022/06/20 11:39:36;;;;;;;2.38;0.90;;;;;;;43.55;15.03;97280.78;5098641;28;20479;-81
2022/06/20 11:42:36;;;;;;;2.03;0.70;;;;;;;43.00;14.87;97275.06;5093874;28;20128;-81
2022/06/20 11:45:21;;;;;;;2.00;0.82;;;;;;;43.80;15.68;97275.00;5114711;28;20100;-81
2022/06/20 11:48:08;;;;;;;0.98;0.60;;;;;;;43.70;16.89;97272.00;5110129;28;20040;-81
2022/06/20 11:50:50;;;;;;;3.75;0.60;;;;;;;44.55;13.56;97262.00;5111384;28;20115;-81
2022/06/20 11:53:39;;;;;;;3.67;0.70;;;;;;;44.35;14.50;97263.16;5099931;28;20530;-81
2022/06/20 11:56:22;;;;;;;1.00;0.70;;;;;;;43.41;15.48;97259.28;5101791;28;20052;-82
2022/06/20 11:59:01;;;;;;;0.82;0.50;;;;;;;43.93;14.38;97263.91;5077471;28;20039;-81
2022/06/20 12:01:37;;;;;;;3.72;0.75;;;;;;;44.87;15.14;97258.16;5096906;28;20086;-81
2022/06/20 12:04:08;;;;;;;3.05;0.60;;;;;;;44.68;14.23;97252.97;5110415;28;20089;-81
2022/06/20 12:06:46;;;;;;;1.85;0.70;;;;;;;44.32;14.13;97249.88;5131483;27;20509;-81
2022/06/20 12:09:24;;;;;;;2.55;0.50;;;;;;;44.26;15.54;97247.22;5108969;28;20035;-81
2022/06/20 12:11:56;;;;;;;1.17;0.60;;;;;;;44.81;15.25;97254.75;5085834;28;20024;-81
2022/06/20 12:14:34;;;;;;;0.82;0.75;;;;;;;44.00;14.17;97258.66;5082701;28;20116;-81
2022/06/20 12:17:06;;;;;;;1.45;0.50;;;;;;;44.38;14.00;97247.47;5108028;28;20084;-81
2022/06/20 12:25:43;;;;;;;0.63;0.50;;;;;;;45.36;14.59;97268.75;5115617;28;20094;-82
2022/06/20 12:28:24;;;;;;;0.75;0.40;;;;;;;45.55;14.26;97287.03;5086695;28;20037;-81
2022/06/20 12:31:18;;;;;;;1.98;0.68;;;;;;;44.73;14.17;97300.41;5078882;28;20036;-82
2022/06/20 12:34:04;;;;;;;1.95;0.60;;;;;;;43.91;14.94;97332.41;5083217;28;20106;-81
2022/06/20 12:36:46;;;;;;;2.50;1.00;;;;;;;42.43;16.34;97344.09;5083816;28;20035;-81
2022/06/20 12:39:31;;;;;;;1.10;1.00;;;;;;;41.18;18.21;97352.09;5089595;28;20123;-80
2022/06/20 12:42:14;;;;;;;2.85;1.00;;;;;;;40.22;19.22;97383.31;5085205;28;20027;-80
2022/06/20 12:44:52;;;;;;;11.80;1.70;;;;;;;39.73;19.31;97388.94;5084767;28;20463;-80